createdAt,value
2019-06-20T00:00:39.859Z,42.83
2019-06-20T00:03:16.198Z,46.53
2019-06-20T00:05:52.257Z,39.23
2019-06-20T00:08:24.086Z,18.50
2019-06-20T00:10:53.369Z,7.23
2019-06-20T00:13:29.253Z,6.30
2019-06-20T00:16:05.122Z,6.10
2019-06-20T00:18:48.028Z,5.50
2019-06-20T00:21:17.219Z,6.40
2019-06-20T00:23:46.374Z,5.80
2019-06-20T00:26:22.224Z,6.27
2019-06-20T00:28:51.474Z,6.50
2019-06-20T00:31:27.457Z,6.60
2019-06-20T00:33:56.663Z,6.27
2019-06-20T00:36:25.965Z,6.27
2019-06-20T00:39:01.811Z,6.10
2019-06-20T00:41:31.107Z,6.17
2019-06-20T00:44:07.407Z,6.13
2019-06-20T00:46:36.622Z,7.60
2019-06-20T00:49:13.019Z,6.17
2019-06-20T00:51:42.238Z,6.30
2019-06-20T00:54:24.528Z,6.80
2019-06-20T00:56:53.925Z,6.40
2019-06-20T00:59:23.382Z,6.60
2019-06-20T01:02:05.876Z,7.03
2019-06-20T01:04:35.062Z,6.70
2019-06-20T01:07:10.797Z,7.50
2019-06-20T01:09:39.948Z,8.60
2019-06-20T01:12:15.428Z,8.00
2019-06-20T01:14:44.613Z,7.07
2019-06-20T01:17:28.488Z,8.97
2019-06-20T01:20:05.087Z,9.70
2019-06-20T01:22:40.560Z,10.00
2019-06-20T01:25:09.773Z,8.43
2019-06-20T01:27:39.030Z,6.30
2019-06-20T01:30:15.847Z,6.90
2019-06-20T01:32:44.992Z,5.70
2019-06-20T01:35:20.980Z,5.30
2019-06-20T01:37:50.297Z,6.23
2019-06-20T01:40:27.830Z,4.77
2019-06-20T01:42:57.186Z,4.40
2019-06-20T01:45:33.175Z,3.70
2019-06-20T01:48:02.787Z,3.60
2019-06-20T01:50:39.171Z,2.93
2019-06-20T01:53:08.302Z,3.07
2019-06-20T01:55:37.438Z,3.60
2019-06-20T01:58:13.019Z,3.20
2019-06-20T02:00:46.081Z,3.50
2019-06-20T02:03:28.744Z,3.50
2019-06-20T02:05:57.989Z,3.27
2019-06-20T02:08:27.185Z,3.27
2019-06-20T02:11:02.684Z,3.00
2019-06-20T02:13:34.119Z,3.20
2019-06-20T02:16:10.213Z,3.83
2019-06-20T02:18:46.721Z,2.87
2019-06-20T02:21:29.342Z,3.00
2019-06-20T02:23:58.513Z,3.13
2019-06-20T02:26:27.890Z,3.00
2019-06-20T02:29:03.479Z,4.00
2019-06-20T02:31:32.767Z,4.00
2019-06-20T02:34:01.888Z,3.30
2019-06-20T02:36:40.193Z,3.10
2019-06-20T02:39:09.399Z,4.43
2019-06-20T02:41:44.891Z,3.73
2019-06-20T02:44:29.346Z,4.00
2019-06-20T02:46:52.283Z,3.97
2019-06-20T02:49:21.504Z,5.23
2019-06-20T02:51:57.349Z,5.90
2019-06-20T02:54:26.667Z,5.97
2019-06-20T02:57:03.380Z,6.40
2019-06-20T02:59:32.576Z,6.90
2019-06-20T03:02:01.842Z,6.43
2019-06-20T03:04:45.744Z,7.30
2019-06-20T03:07:15.141Z,7.80
2019-06-20T03:09:51.253Z,7.00
2019-06-20T03:12:20.520Z,7.87
2019-06-20T03:14:49.682Z,7.40
2019-06-20T03:17:25.265Z,9.00
2019-06-20T03:20:01.463Z,8.93
2019-06-20T03:22:37.098Z,7.37
2019-06-20T03:25:06.580Z,7.97
2019-06-20T03:27:42.770Z,7.57
2019-06-20T03:30:12.359Z,7.33
2019-06-20T03:32:41.861Z,7.07
2019-06-20T03:35:19.787Z,6.50
2019-06-20T03:37:50.327Z,7.60
2019-06-20T03:40:27.158Z,7.83
2019-06-20T03:42:56.322Z,7.30
2019-06-20T03:45:25.478Z,7.00
2019-06-20T03:48:02.426Z,8.53
2019-06-20T03:50:31.614Z,8.00
2019-06-20T03:53:10.168Z,7.27
2019-06-20T03:55:39.423Z,7.17
2019-06-20T03:58:15.635Z,8.20
2019-06-20T04:00:44.817Z,7.80
2019-06-20T04:03:21.019Z,8.20
2019-06-20T04:05:57.310Z,8.63
2019-06-20T04:08:33.135Z,9.50
2019-06-20T04:11:02.491Z,9.30
2019-06-20T04:13:31.830Z,8.40
2019-06-20T04:16:08.689Z,8.97
2019-06-20T04:18:44.425Z,9.10
2019-06-20T04:21:27.443Z,9.50
2019-06-20T04:24:03.479Z,9.40
2019-06-20T04:26:32.726Z,9.40
2019-06-20T04:29:08.325Z,10.30
2019-06-20T04:31:37.556Z,10.57
2019-06-20T04:34:06.791Z,8.63
2019-06-20T04:36:42.211Z,9.80
2019-06-20T04:39:19.324Z,11.50
2019-06-20T04:41:48.957Z,11.30
2019-06-20T04:44:18.110Z,10.17
2019-06-20T04:47:00.397Z,10.60
2019-06-20T04:49:29.595Z,9.83
2019-06-20T04:52:05.775Z,11.97
2019-06-20T04:54:34.978Z,11.80
2019-06-20T04:57:04.187Z,11.10
2019-06-20T04:59:40.015Z,11.43
2019-06-20T05:02:09.326Z,11.53
2019-06-20T05:04:51.834Z,11.27
2019-06-20T05:07:22.406Z,11.30
2019-06-20T05:09:51.705Z,12.37
2019-06-20T05:12:28.328Z,14.83
2019-06-20T05:15:03.912Z,13.53
2019-06-20T05:17:36.105Z,11.67
2019-06-20T05:20:19.349Z,12.40
2019-06-20T05:22:55.706Z,12.97
2019-06-20T05:25:31.864Z,12.20
2019-06-20T05:28:01.099Z,12.60
2019-06-20T05:30:33.848Z,11.67
2019-06-20T05:33:11.448Z,12.23
2019-06-20T05:35:47.208Z,12.10
2019-06-20T05:38:16.533Z,12.03
2019-06-20T05:40:53.050Z,11.50
2019-06-20T05:43:22.208Z,12.30
2019-06-20T05:46:08.044Z,11.60
2019-06-20T05:48:30.099Z,11.53
2019-06-20T05:50:59.334Z,12.90
2019-06-20T05:53:35.191Z,13.27
2019-06-20T05:56:05.412Z,12.80
2019-06-20T05:58:41.565Z,11.90
2019-06-20T06:01:11.850Z,11.93
2019-06-20T06:03:41.203Z,12.80
2019-06-20T06:06:23.955Z,12.40
2019-06-20T06:08:53.212Z,11.43
2019-06-20T06:11:22.447Z,12.00
2019-06-20T06:13:58.693Z,9.97
2019-06-20T06:16:34.411Z,11.03
2019-06-20T06:19:03.558Z,9.40
2019-06-20T06:21:47.087Z,10.53
2019-06-20T06:24:16.383Z,9.30
2019-06-20T06:26:52.470Z,9.03
2019-06-20T06:29:21.835Z,10.97
2019-06-20T06:31:57.489Z,9.40
2019-06-20T06:34:26.751Z,9.53
2019-06-20T06:36:57.538Z,8.83
2019-06-20T06:39:33.622Z,9.20
2019-06-20T06:42:02.853Z,8.60
2019-06-20T06:44:38.407Z,8.67
2019-06-20T06:47:07.588Z,8.60
2019-06-20T06:49:45.781Z,7.83
2019-06-20T06:52:15.085Z,7.80
2019-06-20T06:54:51.387Z,7.13
2019-06-20T06:57:20.640Z,7.40
2019-06-20T06:59:49.876Z,7.70
2019-06-20T07:02:25.412Z,7.87
2019-06-20T07:04:54.605Z,7.47
2019-06-20T07:07:36.892Z,7.10
2019-06-20T07:10:07.037Z,6.23
2019-06-20T07:12:43.238Z,6.37
2019-06-20T07:15:12.989Z,6.30
2019-06-20T07:17:49.589Z,7.30
2019-06-20T07:20:26.366Z,8.33
2019-06-20T07:23:08.899Z,8.33
2019-06-20T07:25:38.048Z,6.60
2019-06-20T07:28:07.271Z,6.20
2019-06-20T07:30:42.757Z,7.90
2019-06-20T07:33:12.275Z,6.90
2019-06-20T07:35:48.439Z,6.40
2019-06-20T07:38:17.683Z,7.30
2019-06-20T07:40:53.529Z,7.20
2019-06-20T07:43:22.729Z,6.20
2019-06-20T07:46:02.922Z,6.17
2019-06-20T07:48:32.669Z,7.37
2019-06-20T07:51:08.767Z,7.40
2019-06-20T07:53:38.149Z,7.10
2019-06-20T07:56:14.095Z,6.50
2019-06-20T07:58:43.360Z,6.50
2019-06-20T08:01:19.545Z,6.97
2019-06-20T08:03:48.823Z,7.97
2019-06-20T08:06:31.425Z,8.20
2019-06-20T08:09:01.112Z,6.40
2019-06-20T08:11:33.223Z,6.30
2019-06-20T08:14:15.004Z,7.07
2019-06-20T08:16:44.511Z,6.30
2019-06-20T08:19:21.529Z,7.00
2019-06-20T08:21:58.063Z,6.90
2019-06-20T08:24:40.445Z,5.97
2019-06-20T08:27:09.816Z,5.47
2019-06-20T08:29:48.394Z,5.77
2019-06-20T08:32:18.332Z,5.10
2019-06-20T08:34:47.735Z,5.07
2019-06-20T08:37:25.489Z,4.60
2019-06-20T08:39:56.766Z,5.10
2019-06-20T08:42:32.460Z,4.90
2019-06-20T08:45:06.019Z,5.53
2019-06-20T08:47:42.437Z,4.50
2019-06-20T08:50:12.305Z,4.77
2019-06-20T08:52:50.738Z,4.73
2019-06-20T08:55:20.756Z,4.90
2019-06-20T08:57:58.196Z,5.27
2019-06-20T09:00:29.034Z,5.33
2019-06-20T09:03:13.955Z,5.20
2019-06-20T09:05:43.305Z,4.80
2019-06-20T09:08:25.432Z,7.37
2019-06-20T09:10:55.700Z,6.10
2019-06-20T09:13:28.143Z,5.40
2019-06-20T09:16:03.694Z,5.20
2019-06-20T09:18:33.170Z,5.20
2019-06-20T09:21:09.503Z,5.17
2019-06-20T09:23:45.537Z,5.80
2019-06-20T09:26:21.225Z,5.70
2019-06-20T09:28:52.244Z,6.13
2019-06-20T09:31:29.235Z,5.70
2019-06-20T09:34:02.466Z,6.27
2019-06-20T09:36:30.689Z,5.43
2019-06-20T09:39:06.351Z,5.77
2019-06-20T09:41:35.738Z,5.30
2019-06-20T09:44:13.275Z,5.13
2019-06-20T09:46:42.563Z,4.67
2019-06-20T09:49:11.847Z,5.30
2019-06-20T09:51:49.133Z,4.60
2019-06-20T09:54:19.133Z,5.53
2019-06-20T09:56:56.912Z,4.43
2019-06-20T09:59:27.939Z,4.53
2019-06-20T10:02:03.824Z,4.40
2019-06-20T10:04:33.281Z,4.40
2019-06-20T10:07:09.172Z,4.90
2019-06-20T10:10:06.722Z,4.30
2019-06-20T10:12:45.203Z,4.60
2019-06-20T10:15:22.537Z,3.80
2019-06-20T10:18:00.165Z,3.73
2019-06-20T10:20:29.426Z,3.87
2019-06-20T10:23:18.836Z,4.00
2019-06-20T10:25:49.225Z,4.23
2019-06-20T10:28:20.067Z,4.20
2019-06-20T10:30:57.872Z,3.90
2019-06-20T10:33:27.458Z,3.50
2019-06-20T10:36:03.913Z,3.83
2019-06-20T10:38:33.137Z,3.70
2019-06-20T10:41:09.418Z,4.23
2019-06-20T10:43:53.257Z,4.40
2019-06-20T10:46:28.919Z,3.47
2019-06-20T10:49:00.198Z,3.90
2019-06-20T10:51:54.112Z,3.50
2019-06-20T10:54:23.646Z,3.87
2019-06-20T10:56:59.403Z,3.30
2019-06-20T10:59:29.220Z,4.17
2019-06-20T11:01:58.425Z,3.87
2019-06-20T11:04:34.168Z,4.00
2019-06-20T11:07:03.450Z,4.43
2019-06-20T11:09:47.068Z,3.70
2019-06-20T11:12:16.440Z,3.90
2019-06-20T11:14:48.453Z,3.77
2019-06-20T11:17:24.778Z,3.67
2019-06-20T11:19:58.378Z,3.80
2019-06-20T11:22:41.633Z,3.90
2019-06-20T11:25:25.093Z,4.13
2019-06-20T11:28:09.000Z,4.37
2019-06-20T11:30:59.599Z,4.30
2019-06-20T11:33:21.528Z,4.30
2019-06-20T11:36:57.192Z,4.03
2019-06-20T11:39:59.560Z,4.40
2019-06-20T11:42:34.699Z,5.57
2019-06-20T11:45:06.732Z,4.80
2019-06-20T11:47:42.990Z,4.80
2019-06-20T11:50:12.484Z,5.03
2019-06-20T11:52:50.029Z,8.97
2019-06-20T11:55:19.762Z,5.20
2019-06-20T11:57:55.488Z,5.03
2019-06-20T12:00:24.786Z,4.73
2019-06-20T12:03:00.623Z,4.43
2019-06-20T12:05:29.865Z,4.70
2019-06-20T12:08:05.784Z,5.93
2019-06-20T12:10:43.098Z,5.20
2019-06-20T12:13:18.461Z,8.40
2019-06-20T12:15:49.009Z,4.10
2019-06-20T12:18:18.352Z,10.07
2019-06-20T12:20:53.947Z,7.43
2019-06-20T12:23:34.043Z,5.70
2019-06-20T12:26:16.671Z,11.30
2019-06-20T12:28:48.719Z,6.43
2019-06-20T12:31:24.897Z,5.87
2019-06-20T12:33:58.475Z,8.30
2019-06-20T12:36:56.645Z,7.60
2019-06-20T12:39:27.514Z,4.43
2019-06-20T12:42:50.802Z,4.50
2019-06-20T12:45:27.635Z,5.90
2019-06-20T12:47:56.789Z,6.43
2019-06-20T12:50:25.963Z,4.33
2019-06-20T12:53:01.385Z,5.77
2019-06-20T12:55:37.248Z,8.60
2019-06-20T12:58:07.871Z,5.80
2019-06-20T13:00:41.668Z,7.20
2019-06-20T13:03:19.051Z,5.63
2019-06-20T13:05:49.051Z,6.10
2019-06-20T13:08:25.029Z,7.67
2019-06-20T13:11:00.528Z,6.33
2019-06-20T13:13:38.816Z,6.07
2019-06-20T13:16:08.120Z,5.13
2019-06-20T13:18:37.463Z,7.47
2019-06-20T13:21:13.025Z,7.00
2019-06-20T13:23:49.610Z,6.53
2019-06-20T13:26:32.803Z,7.67
2019-06-20T13:29:04.376Z,7.53
2019-06-20T13:31:56.205Z,8.50
2019-06-20T13:34:10.997Z,9.53
2019-06-20T13:37:06.344Z,9.70
2019-06-20T13:39:36.561Z,7.53
2019-06-20T13:42:15.861Z,8.60
2019-06-20T13:44:46.990Z,9.30
2019-06-20T13:47:19.310Z,9.20
2019-06-20T13:49:56.006Z,9.50
2019-06-20T13:52:25.255Z,9.93
2019-06-20T13:55:04.872Z,9.60
2019-06-20T13:57:35.589Z,10.10
2019-06-20T14:00:06.123Z,10.83
2019-06-20T14:02:47.042Z,12.43
2019-06-20T14:05:18.732Z,11.83
2019-06-20T14:07:56.001Z,12.10
2019-06-20T14:10:26.596Z,13.73
2019-06-20T14:13:19.097Z,15.10
2019-06-20T14:15:46.142Z,12.63
2019-06-20T14:18:42.587Z,13.93
2019-06-20T14:21:24.676Z,13.83
2019-06-20T14:24:00.268Z,13.17
2019-06-20T14:26:37.225Z,13.53
2019-06-20T14:29:17.430Z,12.57
2019-06-20T14:31:47.234Z,12.97
2019-06-20T14:34:16.869Z,14.20
2019-06-20T14:36:54.019Z,15.97
2019-06-20T14:39:25.705Z,14.97
2019-06-20T14:42:04.503Z,13.60
2019-06-20T14:44:49.858Z,14.10
2019-06-20T14:47:26.477Z,11.63
2019-06-20T14:50:01.228Z,10.80
2019-06-20T14:52:38.696Z,11.80
2019-06-20T14:55:08.331Z,10.30
2019-06-20T14:57:38.848Z,11.67
2019-06-20T15:00:20.918Z,11.27
2019-06-20T15:02:54.470Z,10.80
2019-06-20T15:05:28.230Z,11.80
2019-06-20T15:08:00.842Z,14.40
2019-06-20T15:10:30.245Z,14.70
2019-06-20T15:13:13.956Z,13.20
2019-06-20T15:15:44.884Z,11.27
2019-06-20T15:18:21.043Z,11.37
2019-06-20T15:20:52.258Z,10.13
2019-06-20T15:23:31.632Z,11.27
2019-06-20T15:26:09.424Z,11.40
2019-06-20T15:28:55.140Z,17.90
2019-06-20T15:35:01.898Z,13.10
2019-06-20T15:37:40.334Z,16.77
2019-06-20T15:40:17.261Z,15.20
2019-06-20T15:42:47.485Z,19.23
2019-06-20T15:45:17.998Z,12.67
2019-06-20T15:47:54.163Z,10.10
2019-06-20T15:50:32.196Z,9.80
2019-06-20T15:53:01.539Z,13.43
2019-06-20T15:55:31.413Z,11.50
2019-06-20T15:58:07.796Z,6.90
2019-06-20T16:01:10.198Z,12.93
2019-06-20T16:03:46.598Z,14.30
2019-06-20T16:06:25.610Z,11.60
2019-06-20T16:09:13.226Z,7.30
2019-06-20T16:11:47.210Z,8.77
2019-06-20T16:14:23.672Z,8.70
2019-06-20T16:17:16.532Z,13.20
2019-06-20T16:19:51.998Z,18.10
2019-06-20T16:22:23.697Z,11.67
2019-06-20T16:25:05.717Z,10.47
2019-06-20T16:27:44.556Z,15.07
2019-06-20T16:30:21.754Z,16.00
2019-06-20T16:32:55.647Z,19.50
2019-06-20T16:35:25.130Z,15.33
2019-06-20T16:38:05.595Z,10.33
2019-06-20T16:40:44.310Z,12.87
2019-06-20T16:43:19.953Z,14.00
2019-06-20T16:45:59.122Z,8.27
2019-06-20T16:48:37.207Z,7.60
2019-06-20T16:51:11.782Z,7.10
2019-06-20T16:53:48.160Z,5.33
2019-06-20T16:56:18.128Z,7.00
2019-06-20T16:59:02.570Z,5.60
2019-06-20T17:01:36.284Z,9.53
2019-06-20T17:04:15.182Z,4.80
2019-06-20T17:06:46.775Z,5.20
2019-06-20T17:09:31.226Z,5.27
2019-06-20T17:12:01.246Z,4.23
2019-06-20T17:14:32.297Z,4.97
2019-06-20T17:17:10.030Z,12.97
2019-06-20T17:19:42.179Z,12.50
2019-06-20T17:22:18.233Z,25.43
2019-06-20T17:24:48.196Z,19.30
2019-06-20T17:27:32.069Z,32.30
2019-06-20T17:30:11.526Z,60.90
2019-06-20T17:32:47.218Z,66.30
2019-06-20T17:35:17.104Z,32.23
2019-06-20T17:37:46.820Z,158.67
2019-06-20T17:40:23.109Z,94.30
2019-06-20T17:42:54.133Z,193.37
2019-06-20T17:45:36.658Z,189.70
2019-06-20T17:48:07.593Z,18.47
2019-06-20T17:51:21.771Z,63.73
2019-06-20T17:53:51.361Z,79.87
2019-06-20T17:56:27.481Z,45.47
2019-06-20T17:58:56.926Z,78.97
2019-06-20T18:01:26.281Z,142.07
2019-06-20T18:04:13.412Z,42.03
2019-06-20T18:06:34.753Z,48.27
2019-06-20T18:09:13.781Z,53.50
2019-06-20T18:11:50.570Z,22.87
2019-06-20T18:14:26.398Z,27.37
2019-06-20T18:16:58.342Z,21.27
2019-06-20T18:19:34.792Z,7.80
2019-06-20T18:22:04.786Z,12.17
2019-06-20T18:24:41.768Z,15.40
2019-06-20T18:27:25.007Z,10.57
2019-06-20T18:30:02.382Z,6.90
2019-06-20T18:32:34.066Z,9.73
2019-06-20T18:35:04.254Z,8.13
2019-06-20T18:37:43.979Z,9.00
2019-06-20T18:40:15.955Z,8.43
2019-06-20T18:42:52.212Z,6.53
2019-06-20T18:45:29.129Z,7.50
2019-06-20T18:47:58.818Z,9.83
2019-06-20T18:50:28.035Z,6.77
2019-06-20T18:53:03.432Z,7.13
2019-06-20T18:55:35.321Z,11.40
2019-06-20T18:58:11.637Z,12.70
2019-06-20T19:00:40.928Z,7.67
2019-06-20T19:03:21.242Z,6.90
2019-06-20T19:05:49.691Z,7.43
2019-06-20T19:08:25.860Z,6.20
2019-06-20T19:11:01.534Z,7.70
2019-06-20T19:13:48.325Z,7.40
2019-06-20T19:16:15.949Z,19.67
2019-06-20T19:18:45.629Z,9.90
2019-06-20T19:21:22.793Z,7.30
2019-06-20T19:24:02.066Z,8.40
2019-06-20T19:26:35.446Z,6.97
2019-06-20T19:29:20.197Z,8.13
2019-06-20T19:31:50.054Z,7.50
2019-06-20T19:34:19.793Z,7.07
2019-06-20T19:36:55.688Z,9.10
2019-06-20T19:39:27.060Z,7.87
2019-06-20T19:42:02.631Z,7.43
2019-06-20T19:44:33.634Z,7.43
2019-06-20T19:47:04.832Z,8.23
2019-06-20T19:49:41.526Z,7.50
2019-06-20T19:52:10.930Z,9.50
2019-06-20T19:54:46.683Z,18.53
2019-06-20T19:57:16.233Z,15.33
2019-06-20T19:59:52.109Z,13.80
2019-06-20T20:02:21.406Z,20.67
2019-06-20T20:04:50.857Z,17.00
2019-06-20T20:07:26.490Z,12.17
2019-06-20T20:09:57.092Z,13.37
2019-06-20T20:12:39.105Z,9.67
2019-06-20T20:15:10.634Z,9.83
2019-06-20T20:17:46.811Z,9.80
2019-06-20T20:20:16.665Z,25.57
2019-06-20T20:22:52.621Z,11.47
2019-06-20T20:25:22.526Z,14.43
2019-06-20T20:27:51.821Z,14.93
2019-06-20T20:30:35.484Z,11.00
2019-06-20T20:33:05.496Z,13.50
2019-06-20T20:35:41.298Z,24.47
2019-06-20T20:38:10.472Z,14.17
2019-06-20T20:40:46.706Z,14.87
2019-06-20T20:43:15.938Z,9.93
2019-06-20T20:45:45.102Z,14.60
2019-06-20T20:48:20.746Z,13.57
2019-06-20T20:50:49.926Z,16.00
2019-06-20T20:53:25.246Z,17.10
2019-06-20T20:55:54.462Z,16.13
2019-06-20T20:58:30.237Z,12.90
2019-06-20T21:01:07.397Z,13.57
2019-06-20T21:04:04.981Z,15.07
2019-06-20T21:06:34.279Z,12.50
2019-06-20T21:09:03.694Z,13.33
2019-06-20T21:11:39.248Z,10.73
2019-06-20T21:14:14.581Z,11.50
2019-06-20T21:16:54.482Z,11.10
2019-06-20T21:19:23.766Z,9.70
2019-06-20T21:21:52.999Z,8.83
2019-06-20T21:24:29.342Z,10.50
2019-06-20T21:26:58.792Z,12.47
2019-06-20T21:29:34.779Z,19.40
2019-06-20T21:32:04.266Z,8.57
2019-06-20T21:34:33.519Z,10.63
2019-06-20T21:37:09.390Z,28.73
2019-06-20T21:39:38.933Z,27.40
2019-06-20T21:42:17.336Z,31.57
2019-06-20T21:44:46.725Z,16.60
2019-06-20T21:47:17.048Z,21.07
2019-06-20T21:49:52.638Z,29.77
2019-06-20T21:52:21.898Z,18.83
2019-06-20T21:54:58.607Z,21.90
2019-06-20T21:57:27.902Z,30.13
2019-06-20T22:00:04.638Z,49.83
2019-06-20T22:02:34.221Z,41.30
2019-06-20T22:05:03.603Z,33.33
2019-06-20T22:07:39.391Z,15.73
2019-06-20T22:10:09.411Z,14.73
2019-06-20T22:12:45.564Z,11.40
2019-06-20T22:15:22.281Z,12.93
2019-06-20T22:17:57.825Z,10.30
2019-06-20T22:20:27.232Z,11.80
2019-06-20T22:22:56.479Z,15.23
2019-06-20T22:25:32.660Z,35.97
2019-06-20T22:28:02.019Z,36.53
2019-06-20T22:31:10.529Z,25.77
2019-06-20T22:33:39.830Z,22.07
2019-06-20T22:36:16.489Z,14.33
2019-06-20T22:38:45.786Z,15.73
2019-06-20T22:41:15.082Z,13.10
2019-06-20T22:43:50.512Z,14.90
2019-06-20T22:46:20.882Z,14.50
2019-06-20T22:48:57.013Z,13.03
2019-06-20T22:51:26.415Z,11.97
2019-06-20T22:53:55.685Z,12.30
2019-06-20T22:56:31.985Z,11.73
2019-06-20T22:59:01.165Z,13.30
2019-06-20T23:01:36.954Z,13.70
2019-06-20T23:04:06.236Z,12.70
2019-06-20T23:06:36.648Z,10.90
2019-06-20T23:09:15.050Z,11.10
2019-06-20T23:11:44.358Z,10.70
2019-06-20T23:14:26.736Z,10.40
2019-06-20T23:16:55.914Z,10.80
2019-06-20T23:19:25.062Z,10.40
2019-06-20T23:22:01.274Z,10.73
2019-06-20T23:24:30.554Z,12.40
2019-06-20T23:27:06.734Z,12.07
2019-06-20T23:29:36.056Z,10.47
2019-06-20T23:32:20.281Z,10.40
2019-06-20T23:34:49.585Z,9.70
2019-06-20T23:37:18.757Z,8.70
2019-06-20T23:39:54.241Z,9.60
2019-06-20T23:42:23.445Z,8.63
2019-06-20T23:44:59.028Z,9.60
2019-06-20T23:47:28.214Z,9.53
2019-06-20T23:50:04.430Z,10.30
2019-06-20T23:52:35.357Z,8.70
2019-06-20T23:55:04.967Z,8.40
2019-06-20T23:57:40.774Z,9.10
